• Join FlightAware (Why Join?)
  • Login
  • US Flag 
12:26PM EDT


 

Airport Tracker/Info


-or-


 

Live Flight TrackerFlight Track Log ✈ EJA396 ✈ 30-Jul-2013 ✈ KSUN - KSJC

Flight Track Log - Related Links

Times and Time Zones

All times are in EDT time to prevent confusion due to time zone crossing. See the EJA396 flight status page for this flight to view local times or setup timezone preferences in your user account.

Time Position Orientation Groundspeed Altitude Reporting Facility
EDT Latitude Longitude Course Direction KTS MPH feet Rate Location/Type
10:26AM 43.3831 -114.2594 190° South 198 228 13,400  Level Salt Lake Center
10:27AM 42.8913 -114.3584 188° South  Level FlightAware Approximate
10:27AM 43.3033 -114.2544 177° South 286 329 16,400  Level Salt Lake Center
10:28AM 42.7897 -114.3868 194° South  Level FlightAware Approximate
10:28AM 43.2411 -114.3336 223° Southwest 297 342 19,700  Level Salt Lake Center
10:29AM 42.6888 -114.4200 192° South  Level FlightAware Approximate
10:29AM 43.1889 -114.4142 228° Southwest 308 354 22,500  Level Salt Lake Center
10:30AM 42.5874 -114.4505 192° South  Level FlightAware Approximate
10:30AM 43.1228 -114.5175 229° Southwest 323 372 26,000  Level Salt Lake Center
10:31AM 42.4857 -114.4786 190° South  Level FlightAware Approximate
10:31AM 43.0669 -114.6069 230° Southwest 324 373 28,800  Level Salt Lake Center
10:32AM 42.9994 -114.7111 228° Southwest 328 377 31,400 2,340 Climbing Salt Lake Center
10:33AM 42.9417 -114.8014 229° Southwest 329 379 33,700 1,740 Climbing Salt Lake Center
10:34AM 42.8736 -114.9044 228° Southwest 333 383 35,000 600 Climbing Salt Lake Center
10:35AM 42.8075 -115.0058 228° Southwest 364 419 35,000 240 Level Salt Lake Center
10:36AM 42.7253 -115.1331 229° Southwest 397 457 35,500 1,140 Climbing Salt Lake Center
10:37AM 42.6572 -115.2369 228° Southwest 384 442 37,400 1,200 Climbing Salt Lake Center
10:38AM 42.5917 -115.3367 228° Southwest 372 428 38,000 240 Climbing Salt Lake Center
10:39AM 42.5122 -115.4578 228° Southwest 383 441 38,000  Level Salt Lake Center
10:40AM 42.4439 -115.5594 228° Southwest 382 440 38,000  Level Salt Lake Center
10:41AM 42.3639 -115.6806 228° Southwest 385 443 38,000  Level Salt Lake Center
10:42AM 42.2947 -115.7833 228° Southwest 385 443 38,000  Level Salt Lake Center
10:43AM 42.2147 -115.9047 228° Southwest 387 445 38,000  Level Salt Lake Center
10:44AM 42.1442 -116.0075 227° Southwest 389 448 38,000  Level Salt Lake Center
10:45AM 42.0747 -116.1117 228° Southwest 391 450 38,000  Level Salt Lake Center
10:46AM 41.9961 -116.2275 228° Southwest 394 453 38,000  Level Salt Lake Center
10:47AM 41.9133 -116.3500 228° Southwest 396 456 38,000  Level Salt Lake Center
10:48AM 41.8414 -116.4553 227° Southwest 399 459 38,000  Level Salt Lake Center
10:49AM 41.7581 -116.5764 227° Southwest 395 455 38,000  Level Salt Lake Center
10:50AM 41.6878 -116.6817 228° Southwest 396 456 38,000  Level Salt Lake Center
10:51AM 41.6047 -116.8019 227° Southwest 395 455 38,000  Level Salt Lake Center
10:52AM 41.5331 -116.9031 227° Southwest 393 452 38,000  Level Salt Lake Center
10:53AM 41.4506 -117.0236 228° Southwest 395 455 38,000  Level Salt Lake Center
10:55AM 41.3797 -117.1242 227° Southwest 392 451 38,000  Level Salt Lake Center
10:56AM 41.3083 -117.2267 227° Southwest 393 452 38,000  Level Salt Lake Center
10:57AM 41.2250 -117.3461 227° Southwest 395 455 38,000  Level Salt Lake Center
10:58AM 41.1519 -117.4478 226° Southwest 398 458 38,000  Level Salt Lake Center
10:59AM 41.0675 -117.5681 227° Southwest 400 460 38,000  Level Salt Lake Center
11:00AM 40.9950 -117.6700 227° Southwest 399 459 38,000  Level Salt Lake Center
11:01AM 40.9094 -117.7894 227° Southwest 402 463 38,000  Level Salt Lake Center
11:02AM 40.8369 -117.8906 227° Southwest 398 458 38,000  Level Salt Lake Center
11:03AM 40.7508 -118.0089 226° Southwest 400 460 38,000  Level Salt Lake Center
11:04AM 40.6786 -118.1092 226° Southwest 397 457 38,000  Level Salt Lake Center
11:05AM 40.5942 -118.2242 226° Southwest 394 453 38,000  Level Salt Lake Center
11:06AM 40.5228 -118.3233 227° Southwest 392 451 38,000  Level Salt Lake Center
11:07AM 40.4394 -118.4386 226° Southwest 390 449 38,000 -300 Level Salt Lake Center
11:08AM 40.3664 -118.5364 226° Southwest 391 450 37,500 -1,080 Descending Salt Lake Center
11:09AM 40.2847 -118.6486 226° Southwest 391 450 35,800 -1,260 Descending Salt Lake Center
11:10AM 40.2108 -118.7514 227° Southwest 389 448 35,000 -420 Descending Salt Lake Center
11:11AM 40.1369 -118.8517 226° Southwest 386 444 35,000  Level Salt Lake Center
11:12AM 40.0489 -118.9306 214° Southwest 395 455 35,000  Level Salt Lake Center
11:13AM 39.9181 -118.9789 196° South 405 466 35,000  Level Salt Lake Center
11:14AM 39.8092 -119.0197 196° South 408 470 35,000  Level Salt Lake Center
11:15AM 39.6997 -119.0589 195° South 409 471 35,000  Level Salt Lake Center
11:16AM 39.5675 -119.1072 196° South 413 475 35,000 -420 Level Oakland Center
11:17AM 39.4578 -119.1472 196° South 413 475 34,100 -540 Descending Oakland Center
11:18AM 39.3469 -119.1864 195° South 415 478 34,000 -60 Descending Oakland Center
11:19AM 39.2367 -119.2256 195° South 415 478 34,000  Level Oakland Center
11:20AM 39.1250 -119.2650 195° South 418 481 34,000  Level Oakland Center
11:21AM 39.0119 -119.3044 195° South 419 482 34,000  Level Oakland Center
11:22AM 38.8778 -119.3528 196° South 418 481 34,000 -180 Level Oakland Center
11:23AM 38.7678 -119.3914 195° South 413 475 33,700 -900 Descending Oakland Center
11:25AM 38.6572 -119.4294 195° South 408 470 32,200 -1,500 Descending Oakland Center
11:26AM 38.5453 -119.4706 196° South 416 479 30,700 -1,140 Descending Oakland Center
11:27AM 38.4328 -119.5108 196° South 421 484 30,000 -360 Descending Oakland Center
11:28AM 38.3111 -119.5531 195° South 416 479 30,000  Level Oakland Center
11:29AM 38.2000 -119.5906 195° South 412 474 30,000  Level Oakland Center
11:30AM 38.0897 -119.6283 195° South 408 470 30,000 -960 Level Oakland Center
11:31AM 37.9797 -119.6664 195° South 408 470 28,100 -1,920 Descending Oakland Center
11:32AM 37.8689 -119.7053 195° South 412 474 26,100 -1,980 Descending Oakland Center
11:33AM 37.7578 -119.7436 195° South 412 474 24,100 -1,980 Descending Oakland Center
11:34AM 37.6628 -119.8008 205° Southwest 385 443 22,100 -1,980 Descending Oakland Center
11:35AM 37.5908 -119.8983 227° Southwest 378 435 20,100 -1,080 Descending Oakland Center
11:36AM 37.5181 -119.9975 227° Southwest 382 440 20,000 -60 Descending Oakland Center
11:37AM 37.4456 -120.0964 227° Southwest 383 441 20,000 -840 Level Oakland Center
11:38AM 37.3586 -120.2131 227° Southwest 380 437 18,400 -1,740 Descending Oakland Center
11:39AM 37.2833 -120.3150 227° Southwest 392 451 16,500 -2,040 Descending Oakland Center
11:40AM 37.2333 -120.3833 227° Southwest 394 453 14,800 -2,040 Descending Northern Cal TRACON
11:41AM 37.2000 -120.5000 250° West 406 467 13,000 -1,980 Descending Northern Cal TRACON
11:42AM 37.1667 -120.6167 250° West 361 415 11,100 -1,560 Descending Northern Cal TRACON
11:43AM 37.1500 -120.7333 260° West 339 390 10,000 -600 Descending Northern Cal TRACON
11:44AM 37.1333 -120.8667 261° West 342 394 10,000  Level Northern Cal TRACON
11:45AM 37.1333 -120.9833 270° West 346 398 10,000  Level Northern Cal TRACON
11:45AM 37.1167 -121.0833 258° West 348 400 10,000  Level Northern Cal TRACON
11:46AM 37.1208 -121.1331 276° West 347 399 10,000  Level Oakland Center
11:47AM 37.1119 -121.2514 265° West 346 398 10,000 -960 Level Oakland Center
11:48AM 37.1064 -121.3697 267° West 301 346 8,100 -960 Descending Oakland Center
11:49AM 37.1019 -121.4631 267° West 276 318 8,100 -60 Level Oakland Center
11:50AM 37.0822 -121.5564 255° West 279 321 8,000 -480 Descending Oakland Center
11:51AM 37.0856 -121.6394 273° West 294 338 7,200 -1,080 Descending Oakland Center
11:52AM 37.1553 -121.7028 324° Northwest 290 334 5,800 -960 Descending Oakland Center
11:54AM 37.2333 -121.7667 327° Northwest 226 260 4,200 -1,020 Descending Northern Cal TRACON
11:55AM 37.2667 -121.8333 302° West 231 266 2,700 -1,440 Descending Northern Cal TRACON
11:56AM 37.3000 -121.8667 322° Northwest 163 188 1,500 -1,020 Descending Northern Cal TRACON
11:57AM 37.3333 -121.9000 322° Northwest 122 140 800 -720 Descending Northern Cal TRACON
11:59AM 37.3500 -121.9167 North  Level FlightAware Approximate
12:06PM 37.3627 -121.9291 North  Level Estimated
12:07PM 37.3627 -121.9291 North  Level Estimated